Time;durP1;ratioP1;P1;durP2;ratioP2;P2;SDS_P1;SDS_P2;PMS_P1;PMS_P2;Temp;Humidity;BMP_temperature;BMP_pressure;BME280_temperature;BME280_humidity;BME280_pressure;Samples;Min_cycle;Max_cycle;Signal;HPM_P1;HPM_P2
2022/07/17 00:00:28;;;;;;;3.80;1.77;;;20.10;99.90;;;;;;1043582;28;20028;-70
2022/07/17 00:00:59;;;;;;;3.45;1.88;;;20.10;99.90;;;;;;1042926;28;20025;-69
2022/07/17 00:01:30;;;;;;;1.83;1.20;;;20.00;99.90;;;;;;1038936;28;20434;-70
2022/07/17 00:02:00;;;;;;;4.00;1.70;;;20.00;99.90;;;;;;1038537;28;20418;-70
2022/07/17 00:02:31;;;;;;;4.27;1.77;;;20.00;99.90;;;;;;1039182;28;20071;-69
2022/07/17 00:03:01;;;;;;;2.60;1.70;;;20.00;99.90;;;;;;1042940;28;20098;-70
2022/07/17 00:03:32;;;;;;;3.40;1.80;;;20.00;99.90;;;;;;1043676;28;20016;-70
2022/07/17 00:04:03;;;;;;;8.60;2.10;;;20.00;99.90;;;;;;1043298;28;20840;-70
2022/07/17 00:04:33;;;;;;;2.93;1.73;;;20.00;99.90;;;;;;1044750;28;20488;-70
2022/07/17 00:05:05;;;;;;;2.57;1.50;;;20.00;99.90;;;;;;1047026;28;20378;-70
2022/07/17 00:05:36;;;;;;;1.77;1.48;;;20.00;99.90;;;;;;1047346;28;20020;-70
2022/07/17 00:06:06;;;;;;;3.10;1.87;;;20.00;99.90;;;;;;1046880;28;20044;-70
2022/07/17 00:06:37;;;;;;;3.50;2.10;;;20.00;99.90;;;;;;1047383;28;20119;-70
2022/07/17 00:07:08;;;;;;;5.70;1.70;;;20.00;99.90;;;;;;1042774;28;20559;-70
2022/07/17 00:07:39;;;;;;;2.92;2.20;;;20.00;99.90;;;;;;1039260;28;20428;-70
2022/07/17 00:08:11;;;;;;;3.17;1.90;;;20.00;99.90;;;;;;1034529;28;20311;-69
2022/07/17 00:08:41;;;;;;;3.60;1.92;;;20.00;99.90;;;;;;1039121;28;20016;-70
2022/07/17 00:09:12;;;;;;;8.77;1.90;;;20.00;99.90;;;;;;1041286;28;20032;-69
2022/07/17 00:09:43;;;;;;;4.87;2.00;;;19.90;99.90;;;;;;1043297;28;20150;-70
2022/07/17 00:10:14;;;;;;;5.67;2.00;;;20.00;99.90;;;;;;1047201;28;20597;-70
2022/07/17 00:10:45;;;;;;;4.40;1.77;;;19.90;99.90;;;;;;1047092;28;20028;-70
2022/07/17 00:11:15;;;;;;;2.03;1.57;;;19.90;99.90;;;;;;1042768;28;20031;-69
2022/07/17 00:11:46;;;;;;;3.43;1.97;;;19.90;99.90;;;;;;1043195;28;20479;-70
2022/07/17 00:12:16;;;;;;;4.27;2.10;;;19.90;99.90;;;;;;1043076;28;20017;-69
2022/07/17 00:12:47;;;;;;;3.33;1.93;;;19.90;99.90;;;;;;1047260;28;20044;-70
2022/07/17 00:13:18;;;;;;;3.53;1.73;;;19.90;99.90;;;;;;1047423;28;20020;-69
2022/07/17 00:13:49;;;;;;;4.20;2.22;;;19.90;99.90;;;;;;1047095;28;20028;-69
2022/07/17 00:14:20;;;;;;;4.23;2.10;;;19.90;99.90;;;;;;1047154;28;20020;-69
2022/07/17 00:14:50;;;;;;;2.57;1.67;;;19.90;99.90;;;;;;1047117;28;20074;-69
2022/07/17 00:15:21;;;;;;;4.70;2.60;;;19.90;99.90;;;;;;1047098;28;20028;-68
2022/07/17 00:15:51;;;;;;;3.43;1.90;;;19.90;99.90;;;;;;1047051;28;20877;-69
2022/07/17 00:16:22;;;;;;;4.03;1.87;;;19.90;99.90;;;;;;1047279;28;20047;-69
2022/07/17 00:16:53;;;;;;;2.77;1.90;;;19.90;99.90;;;;;;1047578;28;20128;-69
2022/07/17 00:17:23;;;;;;;4.20;2.33;;;19.90;99.90;;;;;;1047013;28;20067;-69
2022/07/17 00:17:54;;;;;;;3.70;1.93;;;19.90;99.90;;;;;;1047137;28;20016;-69
2022/07/17 00:18:25;;;;;;;3.47;1.60;;;19.90;99.90;;;;;;1047083;28;20081;-68
2022/07/17 00:18:56;;;;;;;4.47;1.73;;;19.90;99.90;;;;;;1042898;28;20130;-68
2022/07/17 00:19:27;;;;;;;2.07;1.57;;;19.90;99.90;;;;;;1043231;28;20025;-71
2022/07/17 00:19:58;;;;;;;2.35;1.50;;;19.80;99.90;;;;;;1047240;28;20028;-69
2022/07/17 00:20:29;;;;;;;3.17;2.00;;;19.90;99.90;;;;;;1047170;28;20143;-69
2022/07/17 00:21:00;;;;;;;4.63;1.88;;;19.80;99.90;;;;;;1047467;28;20028;-69
2022/07/17 00:21:31;;;;;;;3.23;1.77;;;19.80;99.90;;;;;;1047472;28;20472;-69
2022/07/17 00:22:01;;;;;;;5.93;2.10;;;19.80;99.90;;;;;;1047511;28;20124;-69
2022/07/17 00:22:32;;;;;;;3.03;2.17;;;19.80;99.90;;;;;;1047584;28;20021;-69
2022/07/17 00:23:03;;;;;;;3.03;1.63;;;19.80;99.90;;;;;;1047398;28;20103;-69
2022/07/17 00:23:33;;;;;;;5.10;1.60;;;19.80;99.90;;;;;;1047586;28;20032;-70
2022/07/17 00:24:06;;;;;;;3.20;1.87;;;19.80;99.90;;;;;;1047397;28;20562;-69
2022/07/17 00:24:36;;;;;;;3.08;1.70;;;19.80;99.90;;;;;;1047582;28;20024;-69
2022/07/17 00:25:07;;;;;;;4.17;2.13;;;19.80;99.90;;;;;;1047299;28;20028;-72
2022/07/17 00:25:38;;;;;;;5.65;2.35;;;19.80;99.90;;;;;;1047158;28;20031;-69
2022/07/17 00:26:09;;;;;;;2.47;1.60;;;19.80;99.90;;;;;;1046957;28;20016;-70
2022/07/17 00:26:40;;;;;;;3.47;1.73;;;19.80;99.90;;;;;;1047229;28;20126;-69
2022/07/17 00:27:11;;;;;;;4.37;2.00;;;19.80;99.90;;;;;;1046973;28;20032;-69
2022/07/17 00:27:41;;;;;;;2.80;1.80;;;19.80;99.90;;;;;;1047223;28;20079;-70
2022/07/17 00:28:13;;;;;;;3.37;1.70;;;19.80;99.90;;;;;;1046928;28;20024;-69
2022/07/17 00:28:43;;;;;;;5.00;1.90;;;19.80;99.90;;;;;;1047247;28;20027;-69
2022/07/17 00:29:14;;;;;;;3.53;1.80;;;19.80;99.90;;;;;;1047189;28;20044;-69
2022/07/17 00:29:45;;;;;;;3.50;1.80;;;19.80;99.90;;;;;;1047611;28;20020;-70
2022/07/17 00:30:17;;;;;;;2.93;2.00;;;19.80;99.90;;;;;;1047467;28;20662;-69
2022/07/17 00:30:48;;;;;;;4.85;1.65;;;19.80;99.90;;;;;;1047041;28;20021;-69
2022/07/17 00:31:18;;;;;;;3.67;2.37;;;19.80;99.90;;;;;;1047056;28;20024;-69
2022/07/17 00:31:49;;;;;;;2.70;1.83;;;19.80;99.90;;;;;;1047075;28;20656;-69
2022/07/17 00:32:19;;;;;;;2.70;1.77;;;19.80;99.90;;;;;;1047089;28;20055;-69
2022/07/17 00:32:50;;;;;;;1.77;1.33;;;19.80;99.90;;;;;;1047018;28;20135;-70
2022/07/17 00:33:22;;;;;;;5.55;2.17;;;19.80;99.90;;;;;;1042856;28;20028;-69
2022/07/17 00:33:52;;;;;;;2.53;1.77;;;19.80;99.90;;;;;;1038836;28;20349;-70
2022/07/17 00:34:23;;;;;;;2.27;1.57;;;19.80;99.90;;;;;;1039123;28;20396;-70
2022/07/17 00:34:53;;;;;;;3.00;1.67;;;19.80;99.90;;;;;;1043208;28;20079;-70
2022/07/17 00:35:24;;;;;;;3.63;1.80;;;19.80;99.90;;;;;;1046953;28;20103;-70
2022/07/17 00:35:55;;;;;;;2.58;2.03;;;19.70;99.90;;;;;;1047583;28;20729;-71
2022/07/17 00:36:26;;;;;;;4.60;1.70;;;19.70;99.90;;;;;;1046848;28;20020;-71
2022/07/17 00:36:56;;;;;;;5.18;2.58;;;19.70;99.90;;;;;;1047066;28;20036;-71
2022/07/17 00:37:27;;;;;;;4.20;2.43;;;19.70;99.90;;;;;;1047039;28;20020;-70
2022/07/17 00:37:58;;;;;;;5.47;2.20;;;19.70;99.90;;;;;;1047213;28;20028;-69
2022/07/17 00:38:29;;;;;;;6.20;1.93;;;19.70;99.90;;;;;;1046700;28;20094;-69
2022/07/17 00:38:59;;;;;;;2.83;1.87;;;19.70;99.90;;;;;;1047210;28;20025;-70
2022/07/17 00:39:31;;;;;;;4.67;2.30;;;19.70;99.90;;;;;;1046678;28;20028;-70
2022/07/17 00:40:02;;;;;;;4.30;1.80;;;19.70;99.90;;;;;;1046738;28;20547;-70
2022/07/17 00:40:32;;;;;;;3.55;1.60;;;19.70;99.90;;;;;;1047059;28;20097;-70
2022/07/17 00:41:03;;;;;;;2.63;1.40;;;19.70;99.90;;;;;;1047056;28;20090;-70
2022/07/17 00:41:34;;;;;;;2.90;1.70;;;19.70;99.90;;;;;;1047014;28;20111;-69
2022/07/17 00:42:04;;;;;;;4.47;2.00;;;19.70;99.90;;;;;;1047095;28;20024;-70
2022/07/17 00:42:39;;;;;;;3.42;2.05;;;19.70;99.90;;;;;;1047375;28;20028;-70
2022/07/17 00:43:10;;;;;;;4.63;1.92;;;19.70;99.90;;;;;;1047363;28;20032;-69
2022/07/17 00:43:40;;;;;;;4.80;2.03;;;19.60;99.90;;;;;;1047019;28;20020;-70
2022/07/17 00:44:14;;;;;;;5.93;2.40;;;19.60;99.90;;;;;;1047158;28;20016;-69
2022/07/17 00:44:45;;;;;;;4.43;2.00;;;19.60;99.90;;;;;;1046785;28;20017;-70
2022/07/17 00:45:16;;;;;;;4.03;2.00;;;19.60;99.90;;;;;;1047030;28;20463;-70
2022/07/17 00:46:03;;;;;;;5.05;1.90;;;19.60;99.90;;;;;;1046624;28;20048;-71
2022/07/17 00:46:34;;;;;;;3.88;2.28;;;19.60;99.90;;;;;;1044840;28;20446;-69
2022/07/17 00:47:11;;;;;;;2.97;2.00;;;19.60;99.90;;;;;;1045002;28;20511;-70
2022/07/17 00:48:03;;;;;;;1.98;1.42;;;19.60;99.90;;;;;;1047170;28;20016;-69
2022/07/17 00:48:33;;;;;;;4.82;1.90;;;19.60;99.90;;;;;;1047346;28;20032;-70
2022/07/17 00:49:05;;;;;;;3.53;1.93;;;19.60;99.90;;;;;;1046858;28;20052;-70
2022/07/17 00:49:36;;;;;;;3.83;2.00;;;19.60;99.90;;;;;;1047533;28;20044;-70
2022/07/17 00:50:07;;;;;;;5.83;2.00;;;19.60;99.90;;;;;;1046921;28;20301;-70
2022/07/17 00:50:40;;;;;;;5.00;2.10;;;19.50;99.90;;;;;;1047593;28;20074;-70
2022/07/17 00:51:11;;;;;;;4.32;2.20;;;19.50;99.90;;;;;;1046594;28;20147;-72
2022/07/17 00:51:42;;;;;;;3.13;1.50;;;19.50;99.90;;;;;;1047285;28;20024;-71
2022/07/17 00:52:14;;;;;;;4.17;1.73;;;19.50;99.90;;;;;;1046924;28;20533;-71
2022/07/17 00:52:45;;;;;;;2.53;1.58;;;19.50;99.90;;;;;;1047085;28;20762;-70
2022/07/17 00:53:15;;;;;;;4.83;2.70;;;19.50;99.90;;;;;;1047016;28;20371;-70
2022/07/17 00:53:47;;;;;;;3.70;1.90;;;19.50;99.90;;;;;;1047119;28;20712;-70
2022/07/17 00:54:19;;;;;;;5.35;2.03;;;19.50;99.90;;;;;;1046993;28;20033;-70
2022/07/17 00:54:51;;;;;;;3.72;1.98;;;19.50;99.90;;;;;;1046942;28;20028;-70
2022/07/17 00:55:23;;;;;;;4.78;2.20;;;19.50;99.90;;;;;;1046936;28;20027;-70
2022/07/17 00:55:56;;;;;;;2.75;1.80;;;19.50;99.90;;;;;;1047209;28;20646;-70
2022/07/17 00:56:28;;;;;;;2.67;1.90;;;19.50;99.90;;;;;;1046575;28;20599;-70
2022/07/17 00:57:01;;;;;;;3.75;1.98;;;19.50;99.90;;;;;;1047074;28;20080;-69
2022/07/17 00:57:32;;;;;;;3.20;1.85;;;19.50;99.90;;;;;;1046927;28;20440;-71
2022/07/17 00:58:04;;;;;;;5.80;2.15;;;19.50;99.90;;;;;;1046085;28;20021;-70
2022/07/17 00:58:36;;;;;;;4.32;2.25;;;19.40;99.90;;;;;;1043488;28;20025;-70
2022/07/17 00:59:07;;;;;;;3.15;1.95;;;19.40;99.90;;;;;;1047268;28;20016;-70
2022/07/17 00:59:39;;;;;;;2.93;1.73;;;19.40;99.90;;;;;;1047048;28;20470;-70
2022/07/17 01:00:10;;;;;;;5.25;1.98;;;19.40;99.90;;;;;;1047443;28;20549;-70
2022/07/17 01:00:41;;;;;;;4.25;2.22;;;19.40;99.90;;;;;;1046046;28;20077;-70
2022/07/17 01:01:12;;;;;;;3.87;2.03;;;19.40;99.90;;;;;;1047062;28;20025;-69
2022/07/17 01:01:43;;;;;;;3.90;2.00;;;19.40;99.90;;;;;;1046318;28;20256;-70
2022/07/17 01:02:13;;;;;;;3.60;1.80;;;19.40;99.90;;;;;;1047045;28;20058;-69
2022/07/17 01:02:47;;;;;;;4.10;2.10;;;19.40;99.90;;;;;;1042660;28;20052;-70
2022/07/17 01:03:20;;;;;;;2.75;1.95;;;19.40;99.90;;;;;;1047196;28;20025;-69
2022/07/17 01:03:50;;;;;;;4.78;2.30;;;19.40;99.90;;;;;;1046645;28;20016;-69
2022/07/17 01:04:21;;;;;;;3.73;1.83;;;19.40;99.90;;;;;;1047157;28;20028;-69
2022/07/17 01:04:51;;;;;;;5.13;1.93;;;19.40;99.90;;;;;;1046746;28;20028;-69
2022/07/17 01:05:23;;;;;;;3.87;2.03;;;19.40;99.90;;;;;;1047010;28;20024;-69
2022/07/17 01:05:54;;;;;;;4.03;1.85;;;19.40;99.90;;;;;;1046764;28;20456;-69
2022/07/17 01:06:25;;;;;;;4.40;1.93;;;19.40;99.90;;;;;;1047078;28;20550;-69
2022/07/17 01:06:57;;;;;;;3.53;2.05;;;19.40;99.90;;;;;;1042548;28;20048;-69
2022/07/17 01:07:27;;;;;;;3.20;1.90;;;19.40;99.90;;;;;;1043339;28;20093;-70
2022/07/17 01:07:58;;;;;;;4.83;1.90;;;19.40;99.90;;;;;;1046811;28;20067;-70
2022/07/17 01:08:29;;;;;;;3.10;1.90;;;19.40;99.90;;;;;;1043076;28;20055;-70
2022/07/17 01:09:00;;;;;;;4.55;2.00;;;19.40;99.90;;;;;;1043178;28;20049;-70
2022/07/17 01:09:32;;;;;;;3.27;1.60;;;19.40;99.90;;;;;;1047116;28;20040;-71
2022/07/17 01:10:03;;;;;;;4.50;1.95;;;19.40;99.90;;;;;;1046958;28;20096;-69
2022/07/17 01:10:33;;;;;;;2.75;2.00;;;19.40;99.90;;;;;;1042792;28;20503;-70
2022/07/17 01:11:08;;;;;;;4.87;1.77;;;19.40;99.90;;;;;;1042507;28;20519;-70
2022/07/17 01:11:39;;;;;;;4.20;2.10;;;19.40;99.90;;;;;;1038910;28;20017;-68
2022/07/17 01:12:10;;;;;;;4.57;2.00;;;19.40;99.90;;;;;;1036616;28;20026;-69
2022/07/17 01:12:40;;;;;;;3.03;1.77;;;19.40;99.90;;;;;;1042998;28;20100;-69
2022/07/17 01:13:11;;;;;;;4.03;2.00;;;19.40;99.90;;;;;;1042567;28;20020;-70
2022/07/17 01:13:42;;;;;;;3.60;1.97;;;19.40;99.90;;;;;;1043092;28;20017;-69
2022/07/17 01:14:15;;;;;;;3.35;2.30;;;19.40;99.90;;;;;;1042744;28;20443;-70
2022/07/17 01:14:46;;;;;;;2.75;2.03;;;19.40;99.90;;;;;;1043355;28;20024;-69
2022/07/17 01:15:17;;;;;;;6.57;2.47;;;19.40;99.90;;;;;;1042761;28;20059;-70
2022/07/17 01:15:49;;;;;;;2.67;1.80;;;19.40;99.90;;;;;;1039106;28;20036;-70
2022/07/17 01:16:19;;;;;;;3.72;1.80;;;19.40;99.90;;;;;;1038575;28;20021;-70
2022/07/17 01:16:52;;;;;;;4.93;1.87;;;19.40;99.90;;;;;;1038981;28;20370;-69
2022/07/17 01:17:23;;;;;;;3.55;1.90;;;19.40;99.90;;;;;;1038927;28;20022;-68
2022/07/17 01:17:53;;;;;;;3.73;1.70;;;19.40;99.90;;;;;;1043221;28;20037;-68
2022/07/17 01:18:24;;;;;;;4.47;1.97;;;19.40;99.90;;;;;;1046853;28;20032;-69
2022/07/17 01:18:56;;;;;;;3.60;2.07;;;19.30;99.90;;;;;;1042813;28;20123;-69
2022/07/17 01:19:27;;;;;;;5.15;2.20;;;19.30;99.90;;;;;;1046788;28;20055;-69
2022/07/17 01:19:58;;;;;;;2.33;1.80;;;19.30;99.90;;;;;;1042707;28;20028;-69
2022/07/17 01:20:28;;;;;;;2.70;1.90;;;19.30;99.90;;;;;;1042872;28;20079;-69
2022/07/17 01:21:04;;;;;;;2.00;1.47;;;19.30;99.90;;;;;;1047013;28;20469;-71
2022/07/17 01:21:43;;;;;;;3.13;1.98;;;19.30;99.90;;;;;;1046960;28;20024;-69
2022/07/17 01:22:14;;;;;;;2.85;2.08;;;19.30;99.90;;;;;;1047332;28;20028;-69
2022/07/17 01:22:49;;;;;;;2.30;1.60;;;19.30;99.90;;;;;;1047243;28;20103;-69
2022/07/17 01:23:20;;;;;;;4.25;2.00;;;19.30;99.90;;;;;;1047361;28;20480;-68
2022/07/17 01:23:50;;;;;;;3.13;1.50;;;19.30;99.90;;;;;;1047205;28;20021;-68
2022/07/17 01:24:21;;;;;;;2.07;1.70;;;19.30;99.90;;;;;;1047022;28;20031;-69
2022/07/17 01:24:55;;;;;;;3.00;1.50;;;19.30;99.90;;;;;;1046715;28;20749;-68
2022/07/17 01:25:26;;;;;;;2.45;1.80;;;19.30;99.90;;;;;;1046771;28;20036;-68
2022/07/17 01:25:56;;;;;;;6.07;1.87;;;19.20;99.90;;;;;;1046878;28;20111;-71
2022/07/17 01:26:27;;;;;;;2.43;1.70;;;19.20;99.90;;;;;;1047390;28;20025;-71
2022/07/17 01:26:58;;;;;;;3.70;1.93;;;19.20;99.90;;;;;;1047170;28;20025;-69
2022/07/17 01:27:28;;;;;;;3.45;1.70;;;19.20;99.90;;;;;;1046980;28;20103;-69
2022/07/17 01:28:00;;;;;;;1.87;1.33;;;19.20;99.90;;;;;;1046715;28;20028;-69
2022/07/17 01:28:30;;;;;;;3.67;1.92;;;19.20;99.90;;;;;;1046855;28;20062;-68
2022/07/17 01:29:02;;;;;;;4.33;1.60;;;19.20;99.90;;;;;;1042708;28;20039;-69
2022/07/17 01:29:36;;;;;;;3.53;1.50;;;19.20;99.90;;;;;;1046883;28;20252;-68
2022/07/17 01:30:08;;;;;;;2.10;1.40;;;19.20;99.90;;;;;;1046563;28;20136;-68
2022/07/17 01:30:48;;;;;;;2.95;2.00;;;19.20;99.90;;;;;;1042865;28;20520;-68
2022/07/17 01:31:19;;;;;;;3.65;1.88;;;19.20;99.90;;;;;;1042634;28;20103;-68
2022/07/17 01:31:50;;;;;;;4.10;1.70;;;19.20;99.90;;;;;;1042710;28;20024;-68
2022/07/17 01:32:31;;;;;;;5.13;1.77;;;19.20;99.90;;;;;;1044138;28;20114;-68
2022/07/17 01:33:03;;;;;;;5.45;2.10;;;19.20;99.90;;;;;;1044014;28;20095;-69
2022/07/17 01:33:33;;;;;;;4.18;2.13;;;19.10;99.90;;;;;;1042789;28;20079;-69
2022/07/17 01:34:06;;;;;;;4.13;1.93;;;19.10;99.90;;;;;;1042496;28;20033;-69
2022/07/17 01:34:37;;;;;;;2.17;1.63;;;19.20;99.90;;;;;;1043394;28;20024;-69
2022/07/17 01:35:09;;;;;;;2.80;1.77;;;19.10;99.90;;;;;;1046227;28;20027;-69
2022/07/17 01:35:40;;;;;;;3.50;1.80;;;19.10;99.90;;;;;;1046962;28;20093;-69
2022/07/17 01:36:11;;;;;;;3.33;1.53;;;19.10;99.90;;;;;;1046683;28;20038;-69
2022/07/17 01:36:42;;;;;;;4.07;1.93;;;19.10;99.90;;;;;;1046788;28;20043;-69
2022/07/17 01:37:13;;;;;;;2.55;1.58;;;19.10;99.90;;;;;;1046809;28;20557;-69
2022/07/17 01:37:44;;;;;;;4.17;2.03;;;19.10;99.90;;;;;;1047358;28;20727;-69
2022/07/17 01:38:15;;;;;;;5.22;1.65;;;19.10;99.90;;;;;;1046533;28;20445;-69
2022/07/17 01:38:45;;;;;;;2.15;1.63;;;19.10;99.90;;;;;;1046683;28;20029;-69
2022/07/17 01:39:16;;;;;;;2.47;1.70;;;19.10;99.90;;;;;;1046888;28;20020;-68
2022/07/17 01:39:53;;;;;;;2.67;1.60;;;19.10;99.90;;;;;;1046579;28;20012;-70
2022/07/17 01:40:24;;;;;;;2.67;1.70;;;19.10;99.90;;;;;;1046930;28;20175;-70
2022/07/17 01:40:54;;;;;;;2.27;1.47;;;19.10;99.90;;;;;;1042674;28;20091;-70
2022/07/17 01:41:25;;;;;;;4.57;1.77;;;19.10;99.90;;;;;;1043635;28;20096;-70
2022/07/17 01:41:55;;;;;;;6.03;2.30;;;19.10;99.90;;;;;;1046829;28;20066;-70
2022/07/17 01:42:27;;;;;;;3.83;1.60;;;19.10;99.90;;;;;;1046747;28;20025;-70
2022/07/17 01:42:58;;;;;;;3.42;1.50;;;19.10;99.90;;;;;;1047201;28;20024;-70
2022/07/17 01:43:28;;;;;;;2.97;1.40;;;19.10;99.90;;;;;;1046803;28;20025;-70
2022/07/17 01:44:00;;;;;;;4.87;1.50;;;19.10;99.90;;;;;;1046896;28;20066;-69
2022/07/17 01:44:30;;;;;;;3.88;2.03;;;19.10;99.90;;;;;;1046554;28;20487;-70
2022/07/17 01:45:01;;;;;;;3.97;2.03;;;19.10;99.90;;;;;;1046828;28;20021;-70
2022/07/17 01:45:31;;;;;;;3.27;1.80;;;19.10;99.90;;;;;;1046965;28;20063;-70
2022/07/17 01:46:02;;;;;;;4.37;2.00;;;19.10;99.90;;;;;;1046685;28;20525;-69
2022/07/17 01:46:33;;;;;;;4.50;2.00;;;19.10;99.90;;;;;;1047366;28;20126;-69
2022/07/17 01:47:04;;;;;;;2.77;1.50;;;19.10;99.90;;;;;;1046945;28;20529;-69
2022/07/17 01:47:34;;;;;;;4.32;1.90;;;19.10;99.90;;;;;;1047372;28;20039;-70
2022/07/17 01:48:05;;;;;;;3.43;1.80;;;19.10;99.90;;;;;;1046949;28;20021;-70
2022/07/17 01:48:35;;;;;;;2.70;1.47;;;19.10;99.90;;;;;;1047015;28;20020;-70
2022/07/17 01:49:06;;;;;;;1.93;1.40;;;19.10;99.90;;;;;;1046679;28;20028;-70
2022/07/17 01:49:37;;;;;;;3.53;1.73;;;19.10;99.90;;;;;;1047158;28;20131;-69
2022/07/17 01:50:08;;;;;;;2.78;1.50;;;19.10;99.90;;;;;;1046437;28;20530;-68
2022/07/17 01:50:40;;;;;;;3.88;2.00;;;19.10;99.90;;;;;;1047002;28;20023;-68
2022/07/17 01:51:10;;;;;;;4.20;1.73;;;19.10;99.90;;;;;;1046410;28;20024;-68
2022/07/17 01:51:41;;;;;;;3.80;1.40;;;19.10;99.90;;;;;;1046477;28;20021;-69
2022/07/17 01:52:11;;;;;;;2.90;1.80;;;19.10;99.90;;;;;;1046670;28;20029;-69
2022/07/17 01:52:44;;;;;;;2.87;1.50;;;19.10;99.90;;;;;;1047024;28;20104;-69
2022/07/17 01:53:15;;;;;;;2.35;1.60;;;19.10;99.90;;;;;;1046733;28;20150;-69
2022/07/17 01:53:46;;;;;;;2.30;1.53;;;19.10;99.90;;;;;;1047111;28;20182;-69
2022/07/17 01:54:16;;;;;;;3.60;1.73;;;19.10;99.90;;;;;;1047104;28;20070;-70
2022/07/17 01:54:47;;;;;;;2.70;1.77;;;19.10;99.90;;;;;;1047325;28;20070;-69
2022/07/17 01:55:18;;;;;;;2.17;1.43;;;19.10;99.90;;;;;;1047052;28;20074;-69
2022/07/17 01:55:48;;;;;;;7.03;1.60;;;19.10;99.90;;;;;;1047227;28;20578;-69
2022/07/17 01:56:19;;;;;;;2.20;1.30;;;19.00;99.90;;;;;;1046937;28;20073;-69
2022/07/17 01:56:49;;;;;;;4.50;2.07;;;19.00;99.90;;;;;;1047244;28;20020;-69
2022/07/17 01:57:21;;;;;;;2.93;1.60;;;19.00;99.90;;;;;;1046472;28;20546;-69
2022/07/17 01:57:52;;;;;;;2.78;1.70;;;19.00;99.90;;;;;;1046707;28;20025;-69
2022/07/17 01:58:23;;;;;;;1.73;1.63;;;19.00;99.90;;;;;;1046646;28;20080;-69
2022/07/17 01:58:53;;;;;;;3.23;1.70;;;19.00;99.90;;;;;;1046973;28;20031;-68
2022/07/17 01:59:24;;;;;;;2.30;1.70;;;19.00;99.90;;;;;;1046691;28;20715;-68
2022/07/17 01:59:54;;;;;;;4.30;1.80;;;19.00;99.90;;;;;;1047306;28;20024;-71
2022/07/17 02:00:25;;;;;;;3.60;1.73;;;19.00;99.90;;;;;;1046986;28;20020;-70
2022/07/17 02:00:56;;;;;;;2.63;1.70;;;19.00;99.90;;;;;;1047388;28;20486;-70
2022/07/17 02:01:27;;;;;;;4.22;1.75;;;19.00;99.90;;;;;;1047023;28;20035;-69
2022/07/17 02:01:57;;;;;;;4.80;1.90;;;19.00;99.90;;;;;;1046727;28;20028;-70
2022/07/17 02:02:28;;;;;;;4.90;1.93;;;19.00;99.90;;;;;;1047040;28;20027;-68
2022/07/17 02:02:58;;;;;;;3.80;1.77;;;19.00;99.90;;;;;;1047246;28;20392;-69
2022/07/17 02:03:29;;;;;;;2.87;1.60;;;19.00;99.90;;;;;;1046981;28;20027;-69
2022/07/17 02:03:59;;;;;;;4.50;1.83;;;19.00;99.90;;;;;;1047038;28;20025;-69
2022/07/17 02:04:32;;;;;;;3.93;2.17;;;19.00;99.90;;;;;;1047013;28;20115;-69
2022/07/17 02:05:03;;;;;;;1.98;1.50;;;19.00;99.90;;;;;;1047034;28;20169;-69
2022/07/17 02:05:33;;;;;;;3.13;1.85;;;19.00;99.90;;;;;;1046787;28;20704;-69
2022/07/17 02:06:04;;;;;;;5.90;2.10;;;19.00;99.90;;;;;;1046535;28;20060;-68
2022/07/17 02:06:35;;;;;;;3.17;1.67;;;19.00;99.90;;;;;;1046798;28;20032;-68
2022/07/17 02:07:05;;;;;;;2.80;1.70;;;19.00;99.90;;;;;;1046574;28;20021;-68
2022/07/17 02:07:39;;;;;;;2.80;1.67;;;18.90;99.90;;;;;;1047001;28;20024;-69
2022/07/17 02:08:10;;;;;;;4.57;2.13;;;18.90;99.90;;;;;;1046156;28;20022;-68
2022/07/17 02:08:41;;;;;;;3.67;1.93;;;18.90;99.90;;;;;;1042886;28;20029;-69
2022/07/17 02:09:12;;;;;;;4.47;2.47;;;18.90;99.90;;;;;;1042965;28;20644;-68
2022/07/17 02:09:43;;;;;;;3.42;1.77;;;18.90;99.90;;;;;;1042671;28;20361;-70
2022/07/17 02:10:14;;;;;;;4.53;2.00;;;;;;;;;;1042463;28;20699;-68
2022/07/17 02:10:45;;;;;;;5.85;1.90;;;18.90;99.90;;;;;;1038405;28;20838;-69
2022/07/17 02:11:16;;;;;;;4.07;1.73;;;18.90;99.90;;;;;;1038704;28;20021;-68
2022/07/17 02:11:47;;;;;;;3.50;1.73;;;18.90;99.90;;;;;;1042568;28;20790;-68
2022/07/17 02:12:17;;;;;;;2.07;1.37;;;18.90;99.90;;;;;;1042636;28;20719;-68
2022/07/17 02:12:48;;;;;;;4.00;2.00;;;18.90;99.90;;;;;;1043012;28;20104;-69
2022/07/17 02:13:19;;;;;;;2.80;1.83;;;18.90;99.90;;;;;;1043060;28;20013;-69
2022/07/17 02:13:49;;;;;;;5.03;1.80;;;18.90;99.90;;;;;;1042969;28;20470;-69
2022/07/17 02:14:20;;;;;;;2.65;1.48;;;18.90;99.90;;;;;;1046434;28;20679;-69
2022/07/17 02:14:51;;;;;;;3.03;1.70;;;18.90;99.90;;;;;;1046877;28;20672;-69
2022/07/17 02:15:22;;;;;;;2.93;1.63;;;18.80;99.90;;;;;;1046644;28;20098;-69
2022/07/17 02:15:53;;;;;;;3.90;1.58;;;18.80;99.90;;;;;;1046589;28;20040;-69
2022/07/17 02:16:23;;;;;;;2.33;1.97;;;18.80;99.90;;;;;;1046544;28;20020;-69
2022/07/17 02:16:54;;;;;;;3.80;2.10;;;18.80;99.90;;;;;;1046889;28;20140;-69
2022/07/17 02:17:25;;;;;;;3.17;1.50;;;18.80;99.90;;;;;;1046457;28;20028;-69
2022/07/17 02:17:56;;;;;;;3.63;1.77;;;18.80;99.90;;;;;;1046750;28;20025;-69
2022/07/17 02:18:27;;;;;;;3.58;1.60;;;18.80;99.90;;;;;;1042425;28;20025;-68
2022/07/17 02:18:57;;;;;;;4.07;1.50;;;18.80;99.90;;;;;;1042705;28;20056;-69
2022/07/17 02:19:28;;;;;;;2.83;1.63;;;18.80;99.90;;;;;;1042562;28;20071;-69
2022/07/17 02:19:58;;;;;;;2.17;1.50;;;18.80;99.90;;;;;;1042789;28;20206;-69
2022/07/17 02:20:29;;;;;;;3.33;1.80;;;18.80;99.90;;;;;;1046634;28;20033;-69
2022/07/17 02:21:01;;;;;;;5.97;1.95;;;18.80;99.90;;;;;;1046581;28;20025;-69
2022/07/17 02:21:31;;;;;;;2.63;1.40;;;18.80;99.90;;;;;;1046406;28;20027;-69
2022/07/17 02:22:02;;;;;;;3.93;1.70;;;18.90;99.90;;;;;;1046727;28;20031;-69
2022/07/17 02:22:33;;;;;;;2.60;1.57;;;18.90;99.90;;;;;;1042467;28;20116;-69
2022/07/17 02:23:04;;;;;;;3.80;1.80;;;18.90;99.90;;;;;;1042387;28;20033;-69
2022/07/17 02:23:34;;;;;;;3.57;1.43;;;18.90;99.90;;;;;;1042562;28;20021;-69
2022/07/17 02:24:05;;;;;;;3.17;1.83;;;18.90;99.90;;;;;;1042496;28;20123;-69
2022/07/17 02:24:36;;;;;;;4.30;2.00;;;18.90;99.90;;;;;;1042861;28;20053;-69
2022/07/17 02:25:08;;;;;;;1.63;1.23;;;18.90;99.90;;;;;;1043019;28;20017;-69
2022/07/17 02:25:39;;;;;;;4.05;1.60;;;18.90;99.90;;;;;;1043089;28;20262;-69
2022/07/17 02:26:10;;;;;;;2.70;1.77;;;18.90;99.90;;;;;;1042838;28;20071;-69
2022/07/17 02:26:42;;;;;;;3.38;1.45;;;18.90;99.90;;;;;;1042478;28;20399;-69
2022/07/17 02:27:12;;;;;;;3.42;1.77;;;18.90;99.90;;;;;;1038518;28;20029;-69
2022/07/17 02:27:43;;;;;;;2.73;1.33;;;18.90;99.90;;;;;;1038343;28;20020;-69
2022/07/17 02:28:14;;;;;;;2.67;1.70;;;18.90;99.90;;;;;;1038621;28;20042;-68
2022/07/17 02:28:45;;;;;;;2.80;1.40;;;18.90;99.90;;;;;;1042449;28;20029;-69
2022/07/17 02:29:15;;;;;;;4.03;1.63;;;18.90;99.90;;;;;;1042516;28;20098;-69
2022/07/17 02:29:46;;;;;;;2.43;1.47;;;18.90;99.90;;;;;;1042484;28;20025;-69
2022/07/17 02:30:17;;;;;;;3.30;1.80;;;18.90;99.90;;;;;;1042683;28;20106;-69
2022/07/17 02:30:48;;;;;;;2.13;1.27;;;18.80;99.90;;;;;;1038565;28;20603;-68
2022/07/17 02:31:19;;;;;;;4.50;2.00;;;18.90;99.90;;;;;;1038395;28;20786;-69
2022/07/17 02:31:52;;;;;;;3.87;1.90;;;18.80;99.90;;;;;;1038385;28;20108;-69
2022/07/17 02:32:23;;;;;;;5.60;1.88;;;18.80;99.90;;;;;;1039045;28;20029;-69
2022/07/17 02:32:53;;;;;;;4.03;1.90;;;18.80;99.90;;;;;;1042729;28;20028;-69
2022/07/17 02:33:24;;;;;;;2.77;1.97;;;18.80;99.90;;;;;;1042566;28;20472;-69
2022/07/17 02:33:55;;;;;;;3.50;1.60;;;18.80;99.90;;;;;;1042404;28;20686;-69
2022/07/17 02:34:25;;;;;;;4.93;1.70;;;18.80;99.90;;;;;;1042643;28;20695;-69
2022/07/17 02:34:56;;;;;;;3.30;1.57;;;18.80;99.90;;;;;;1042747;28;20064;-69
2022/07/17 02:35:26;;;;;;;3.33;1.50;;;18.80;99.90;;;;;;1042659;28;20112;-69
2022/07/17 02:35:57;;;;;;;2.73;1.90;;;18.80;99.90;;;;;;1043017;28;20078;-69
2022/07/17 02:36:27;;;;;;;2.47;1.43;;;18.70;99.90;;;;;;1042843;28;20678;-69
2022/07/17 02:36:58;;;;;;;2.93;1.70;;;18.70;99.90;;;;;;1043013;28;20029;-70
2022/07/17 02:37:28;;;;;;;2.40;1.57;;;18.70;99.90;;;;;;1042328;28;20029;-70
2022/07/17 02:37:59;;;;;;;2.20;1.37;;;18.70;99.90;;;;;;1038381;28;20052;-69
2022/07/17 02:38:29;;;;;;;3.40;1.67;;;18.70;99.90;;;;;;1038021;28;20072;-69
2022/07/17 02:39:01;;;;;;;2.37;1.63;;;18.70;99.90;;;;;;1038806;28;20033;-68
2022/07/17 02:39:31;;;;;;;3.20;1.75;;;18.70;99.90;;;;;;1042450;28;20053;-69
2022/07/17 02:40:04;;;;;;;1.70;1.30;;;18.70;99.90;;;;;;1043077;28;20029;-70
2022/07/17 02:40:35;;;;;;;2.67;1.50;;;18.70;99.90;;;;;;1042742;28;20646;-69
2022/07/17 02:41:06;;;;;;;3.53;1.58;;;18.70;99.90;;;;;;1042844;28;20098;-71
2022/07/17 02:41:37;;;;;;;2.90;2.00;;;18.70;99.90;;;;;;1042880;28;20067;-70
2022/07/17 02:42:07;;;;;;;2.63;1.50;;;18.60;99.90;;;;;;1042397;28;20029;-70
2022/07/17 02:42:39;;;;;;;2.30;1.53;;;18.60;99.90;;;;;;1042466;28;20040;-70
2022/07/17 02:43:09;;;;;;;3.83;1.85;;;18.60;99.90;;;;;;1042563;28;20013;-69